Time;durP1;ratioP1;P1;durP2;ratioP2;P2;SDS_P1;SDS_P2;PMS_P1;PMS_P2;Temp;Humidity;BMP_temperature;BMP_pressure;BME280_temperature;BME280_humidity;BME280_pressure;Samples;Min_cycle;Max_cycle;Signal;HPM_P1;HPM_P2
2021/06/18 00:00:47;;;;;;;;;12.00;10.00;;;;;23.23;64.64;100744.13;4830467;29;45350;-67
2021/06/18 00:03:12;;;;;;;;;10.75;9.75;;;;;23.24;64.43;100732.25;4829727;29;45359;-67
2021/06/18 00:05:38;;;;;;;;;7.75;7.50;;;;;23.28;65.19;100744.59;4830284;29;45469;-67
2021/06/18 00:08:03;;;;;;;;;9.50;8.25;;;;;23.32;64.91;100746.06;4829572;29;63735;-67
2021/06/18 00:10:29;;;;;;;;;10.25;9.00;;;;;23.29;64.91;100728.13;4830300;29;45710;-67
2021/06/18 00:12:54;;;;;;;;;9.25;9.25;;;;;23.31;64.97;100712.53;4829767;29;45483;-67
2021/06/18 00:15:20;;;;;;;;;8.00;7.25;;;;;23.31;64.80;100717.97;4813857;29;45471;-67
2021/06/18 00:17:46;;;;;;;;;9.50;9.50;;;;;23.34;64.54;100715.97;4813141;29;47332;-68
2021/06/18 00:20:12;;;;;;;;;10.75;10.25;;;;;23.28;65.10;100717.38;4813457;29;45465;-66
2021/06/18 00:22:37;;;;;;;;;10.25;9.00;;;;;23.28;65.33;100704.59;4813622;29;45376;-67
2021/06/18 00:25:04;;;;;;;;;9.00;9.00;;;;;23.34;65.36;100718.69;4812782;29;57025;-67
2021/06/18 00:27:29;;;;;;;;;11.00;10.50;;;;;23.35;65.45;100715.84;4818874;29;47180;-67
2021/06/18 00:29:55;;;;;;;;;12.75;11.75;;;;;23.34;65.64;100714.13;4829569;29;56021;-67
2021/06/18 00:32:20;;;;;;;;;7.75;7.75;;;;;23.38;65.04;100729.19;4829121;29;66333;-67
2021/06/18 00:34:45;;;;;;;;;8.00;8.00;;;;;23.38;65.12;100726.47;4828434;29;64152;-67
2021/06/18 00:37:11;;;;;;;;;9.75;8.25;;;;;23.38;65.01;100731.06;4829478;29;46067;-67
2021/06/18 00:39:36;;;;;;;;;8.25;8.25;;;;;23.34;64.58;100719.56;4797610;29;55433;-67
2021/06/18 00:42:02;;;;;;;;;9.25;9.25;;;;;23.27;64.77;100716.50;4829094;29;61680;-67
2021/06/18 00:44:27;;;;;;;;;9.00;9.00;;;;;23.29;65.30;100725.41;4829415;29;45915;-67
2021/06/18 00:46:53;;;;;;;;;9.75;8.25;;;;;23.24;65.08;100716.78;4829649;29;46279;-67
2021/06/18 00:49:18;;;;;;;;;9.00;9.00;;;;;23.21;65.02;100705.28;4828798;29;68597;-67
2021/06/18 00:51:44;;;;;;;;;8.25;8.25;;;;;23.23;65.04;100722.34;4829906;29;46050;-67
2021/06/18 00:54:10;;;;;;;;;9.50;9.50;;;;;23.19;65.60;100716.31;4811670;29;61530;-67
2021/06/18 00:56:36;;;;;;;;;8.00;8.00;;;;;23.16;65.39;100718.44;4829209;29;46516;-67
2021/06/18 00:59:01;;;;;;;;;10.00;10.00;;;;;23.15;65.90;100725.72;4827307;29;58671;-67
2021/06/18 01:01:27;;;;;;;;;7.75;6.75;;;;;23.12;66.02;100724.16;4812714;29;60171;-67
2021/06/18 01:03:52;;;;;;;;;9.25;8.75;;;;;23.14;65.54;100721.28;4828726;29;45351;-67
2021/06/18 01:06:21;;;;;;;;;8.25;8.25;;;;;23.10;65.72;100714.38;4829415;29;46179;-67
2021/06/18 01:08:52;;;;;;;;;10.50;9.25;;;;;23.14;65.60;100713.13;4813041;29;45444;-67
2021/06/18 01:11:38;;;;;;;;;9.00;8.00;;;;;23.17;65.75;100707.41;4798349;29;45398;-67
2021/06/18 01:14:10;;;;;;;;;8.00;8.00;;;;;23.17;65.54;100711.97;4829057;29;45440;-67
2021/06/18 01:16:43;;;;;;;;;7.25;7.25;;;;;23.10;65.58;100708.91;4827914;29;45414;-67
2021/06/18 01:19:34;;;;;;;;;4.75;4.75;;;;;23.10;65.58;100719.81;4797424;29;45263;-67
2021/06/18 01:22:05;;;;;;;;;9.00;6.25;;;;;23.09;65.77;100707.22;4806124;29;45324;-67
2021/06/18 01:25:04;;;;;;;;;7.25;7.25;;;;;23.09;65.64;100718.97;4828433;29;46321;-67
2021/06/18 01:27:33;;;;;;;;;5.00;5.00;;;;;23.10;65.78;100707.09;4812184;29;45407;-67
2021/06/18 01:30:11;;;;;;;;;4.75;4.75;;;;;23.13;66.04;100704.06;4829201;29;45455;-67
2021/06/18 01:33:00;;;;;;;;;8.00;8.00;;;;;23.15;65.70;100678.59;4828748;29;45260;-67
2021/06/18 01:35:29;;;;;;;;;7.00;7.00;;;;;23.06;65.72;100669.31;4829035;29;45267;-67
2021/06/18 01:37:56;;;;;;;;;7.25;6.50;;;;;23.03;65.89;100692.22;4797347;29;45437;-67
2021/06/18 01:40:21;;;;;;;;;6.75;5.75;;;;;23.01;65.73;100679.75;4812577;29;45409;-67
2021/06/18 01:42:48;;;;;;;;;9.50;7.00;;;;;23.00;66.10;100678.00;4796337;29;45480;-67
2021/06/18 01:45:14;;;;;;;;;9.00;7.25;;;;;22.98;65.90;100674.56;4812573;29;45351;-67
2021/06/18 01:47:41;;;;;;;;;2.75;2.75;;;;;22.98;66.17;100677.28;4797116;29;47153;-67
2021/06/18 01:50:07;;;;;;;;;6.00;5.75;;;;;22.97;66.27;100671.00;4812476;29;45551;-67
2021/06/18 01:52:33;;;;;;;;;9.00;8.00;;;;;22.99;66.35;100659.94;4797408;29;45214;-67
2021/06/18 01:54:58;;;;;;;;;7.75;5.75;;;;;22.93;65.94;100655.91;4828567;29;45232;-67
2021/06/18 01:57:23;;;;;;;;;4.00;4.00;;;;;22.98;65.49;100667.25;4796686;29;46154;-67
2021/06/18 01:59:49;;;;;;;;;5.75;5.00;;;;;22.97;65.55;100668.28;4827921;29;72063;-67
2021/06/18 02:02:14;;;;;;;;;5.00;5.00;;;;;22.99;65.63;100649.06;4815070;29;45316;-67
2021/06/18 02:04:40;;;;;;;;;3.75;3.75;;;;;23.00;65.44;100658.97;4810605;29;50380;-67
2021/06/18 02:07:05;;;;;;;;;1.25;1.25;;;;;22.99;65.12;100657.22;4795968;29;66928;-67
2021/06/18 02:09:31;;;;;;;;;3.00;3.00;;;;;22.94;65.28;100652.19;4812250;29;45852;-67
2021/06/18 02:11:56;;;;;;;;;2.00;2.00;;;;;23.01;65.23;100666.13;4811312;29;61700;-67
2021/06/18 02:14:24;;;;;;;;;2.00;2.00;;;;;23.04;65.38;100665.88;4827731;29;66093;-67
2021/06/18 02:16:54;;;;;;;;;1.50;1.50;;;;;23.05;65.48;100673.03;4828063;29;46301;-67
2021/06/18 02:19:21;;;;;;;;;3.00;3.00;;;;;23.07;65.59;100668.34;4811845;29;45299;-67
2021/06/18 02:21:46;;;;;;;;;4.00;3.75;;;;;23.13;65.78;100660.50;4811897;29;45365;-67
2021/06/18 02:24:12;;;;;;;;;3.25;2.25;;;;;23.15;65.68;100646.75;4828360;29;45257;-67
2021/06/18 02:26:38;;;;;;;;;4.75;3.00;;;;;23.15;65.73;100644.03;4811367;29;45402;-67
2021/06/18 02:29:05;;;;;;;;;2.00;2.00;;;;;23.13;64.80;100636.00;4811289;29;65048;-67
2021/06/18 02:31:31;;;;;;;;;3.00;3.00;;;;;23.09;64.74;100631.84;4828433;29;45271;-67
2021/06/18 02:33:56;;;;;;;;;3.00;3.00;;;;;23.03;64.63;100615.16;4795447;29;64884;-67
2021/06/18 02:36:21;;;;;;;;;3.00;3.00;;;;;23.03;64.53;100623.31;4827547;29;63964;-67
2021/06/18 02:38:47;;;;;;;;;4.00;3.00;;;;;23.05;65.27;100613.16;4828134;29;45379;-67
2021/06/18 02:41:13;;;;;;;;;2.75;2.75;;;;;23.06;65.04;100618.50;4828074;29;45409;-67
2021/06/18 02:43:38;;;;;;;;;4.25;3.00;;;;;23.05;64.98;100618.59;4826931;29;70074;-67
2021/06/18 02:46:04;;;;;;;;;3.25;3.25;;;;;23.05;65.20;100619.44;4827935;29;45972;-67
2021/06/18 02:48:31;;;;;;;;;2.75;2.75;;;;;23.06;64.83;100615.75;4827792;29;58230;-67
2021/06/18 02:51:07;;;;;;;;;2.00;2.00;;;;;23.05;64.98;100619.44;4812038;29;45395;-67
2021/06/18 02:54:10;;;;;;;;;4.00;4.00;;;;;23.01;64.78;100609.84;4796579;29;45355;-67
2021/06/18 02:56:46;;;;;;;;;4.00;3.00;;;;;22.96;64.91;100614.81;4814857;29;45415;-67
2021/06/18 02:59:17;;;;;;;;;3.00;3.00;;;;;22.97;64.56;100619.28;4793638;29;45387;-67
2021/06/18 03:01:42;;;;;;;;;2.50;2.00;;;;;22.94;64.98;100622.25;4805834;29;45343;-67
2021/06/18 03:04:11;;;;;;;;;3.75;3.75;;;;;22.94;65.29;100616.81;4795229;29;59324;-67
2021/06/18 03:06:37;;;;;;;;;3.50;3.00;;;;;22.94;65.27;100609.50;4811523;29;45352;-67
2021/06/18 03:09:04;;;;;;;;;3.50;3.50;;;;;22.91;65.05;100603.47;4796490;29;45585;-67
2021/06/18 03:11:37;;;;;;;;;2.00;2.00;;;;;22.94;65.05;100608.66;4827894;29;45178;-67
2021/06/18 03:14:07;;;;;;;;;3.75;2.50;;;;;22.88;65.33;100606.44;4811398;29;45387;-67
2021/06/18 03:16:32;;;;;;;;;2.50;2.50;;;;;22.92;65.47;100616.94;4828664;29;47400;-67
2021/06/18 03:19:00;;;;;;;;;4.25;3.25;;;;;22.94;65.48;100612.22;4798635;29;55426;-67
2021/06/18 03:21:26;;;;;;;;;2.00;2.00;;;;;22.94;65.51;100612.22;4814214;29;45412;-67
2021/06/18 03:23:51;;;;;;;;;3.00;3.00;;;;;22.92;65.61;100606.06;4830143;29;70687;-67
2021/06/18 03:26:16;;;;;;;;;2.75;2.75;;;;;22.99;65.42;100613.66;4797987;29;74605;-67
2021/06/18 03:28:42;;;;;;;;;3.75;3.75;;;;;23.02;65.61;100629.75;4813479;29;63254;-67
2021/06/18 03:31:10;;;;;;;;;3.75;3.75;;;;;23.06;65.93;100653.00;4814199;29;45893;-67
2021/06/18 03:33:35;;;;;;;;;2.50;2.50;;;;;23.11;66.04;100688.88;4799214;29;45434;-67
2021/06/18 03:36:00;;;;;;;;;3.25;3.25;;;;;23.16;65.97;100702.97;4816672;29;68691;-67
2021/06/18 03:38:26;;;;;;;;;6.50;3.75;;;;;23.14;66.02;100688.63;4813168;29;72189;-67
2021/06/18 03:40:51;;;;;;;;;3.75;3.75;;;;;23.18;65.61;100694.66;4829852;29;59479;-67
2021/06/18 03:43:16;;;;;;;;;5.25;4.25;;;;;23.17;66.12;100692.91;4814130;29;45480;-67
2021/06/18 03:45:43;;;;;;;;;6.75;6.00;;;;;23.08;66.02;100665.50;4813499;29;58892;-67
2021/06/18 03:48:10;;;;;;;;;8.00;5.00;;;;;23.18;66.28;100684.63;4814096;29;45313;-67
2021/06/18 03:50:36;;;;;;;;;6.00;4.75;;;;;23.16;66.41;100674.88;4813556;29;45503;-67
2021/06/18 03:53:02;;;;;;;;;4.25;4.25;;;;;23.15;66.42;100660.38;4813951;29;45433;-67
2021/06/18 03:55:28;;;;;;;;;6.50;6.50;;;;;23.19;66.35;100663.69;4830181;29;46237;-67
2021/06/18 03:57:53;;;;;;;;;7.50;6.00;;;;;23.20;66.81;100654.53;4830090;29;45503;-67
2021/06/18 04:00:19;;;;;;;;;7.00;5.00;;;;;23.18;66.57;100646.50;4829579;29;58761;-67
2021/06/18 04:02:44;;;;;;;;;5.25;5.25;;;;;23.19;66.08;100647.34;4813882;29;45254;-67
2021/06/18 04:05:14;;;;;;;;;9.50;8.00;;;;;23.22;66.51;100655.25;4798379;29;46170;-67
2021/06/18 04:07:42;;;;;;;;;6.25;6.25;;;;;23.22;66.05;100639.81;4798808;29;45343;-67
2021/06/18 04:10:08;;;;;;;;;7.00;5.50;;;;;23.20;66.21;100639.06;4814131;29;45331;-67
2021/06/18 04:12:34;;;;;;;;;7.00;6.00;;;;;23.26;66.20;100632.22;4813606;29;45354;-67
2021/06/18 04:14:59;;;;;;;;;7.00;6.75;;;;;23.23;66.07;100635.22;4797264;29;67230;-67
2021/06/18 04:17:24;;;;;;;;;5.00;5.00;;;;;23.29;65.95;100640.13;4829375;29;60066;-67
2021/06/18 04:19:50;;;;;;;;;6.75;6.75;;;;;23.29;65.83;100632.81;4812418;29;60673;-67
2021/06/18 04:22:16;;;;;;;;;6.50;6.25;;;;;23.24;66.20;100629.63;4829110;29;67073;-67
2021/06/18 04:24:42;;;;;;;;;8.25;7.50;;;;;23.27;65.88;100634.81;4797813;29;51604;-67
2021/06/18 04:27:07;;;;;;;;;5.50;5.50;;;;;23.25;66.33;100617.72;4829024;29;45252;-67
2021/06/18 04:29:32;;;;;;;;;6.50;6.50;;;;;23.29;66.06;100631.97;4828517;29;53702;-67
2021/06/18 04:31:58;;;;;;;;;7.75;7.75;;;;;23.24;65.59;100620.63;4812583;29;54155;-68
2021/06/18 04:34:23;;;;;;;;;8.00;8.00;;;;;23.24;65.76;100624.19;4828531;29;45374;-67
2021/06/18 04:36:49;;;;;;;;;7.00;7.00;;;;;23.21;65.68;100616.28;4827991;29;45354;-67
2021/06/18 04:39:14;;;;;;;;;8.75;8.00;;;;;23.20;66.04;100609.09;4827840;29;67892;-67
2021/06/18 04:41:39;;;;;;;;;5.75;5.75;;;;;23.20;65.92;100610.97;4827559;29;61204;-67
2021/06/18 04:44:05;;;;;;;;;10.50;8.25;;;;;23.20;65.84;100613.69;4828919;29;46195;-67
2021/06/18 04:46:31;;;;;;;;;7.50;7.50;;;;;23.18;65.98;100604.81;4829137;29;45571;-67
2021/06/18 04:48:56;;;;;;;;;6.75;6.25;;;;;23.15;66.23;100596.91;4829087;29;45459;-67
2021/06/18 04:51:21;;;;;;;;;7.50;7.00;;;;;23.10;66.34;100586.41;4828398;29;57388;-67
2021/06/18 04:53:47;;;;;;;;;7.75;7.75;;;;;23.17;66.07;100600.34;4811787;29;69272;-67
2021/06/18 04:56:12;;;;;;;;;9.75;7.75;;;;;23.15;66.22;100599.63;4827550;29;45387;-67
2021/06/18 04:58:38;;;;;;;;;10.00;8.00;;;;;23.15;66.19;100608.66;4829366;29;45920;-67
2021/06/18 05:01:03;;;;;;;;;8.75;8.75;;;;;23.14;66.22;100606.94;4829222;29;45312;-67
2021/06/18 05:03:29;;;;;;;;;8.75;7.25;;;;;23.13;66.00;100606.06;4812426;29;46155;-67
2021/06/18 05:05:54;;;;;;;;;7.00;7.00;;;;;23.17;66.44;100614.84;4829445;29;45359;-67
2021/06/18 05:08:19;;;;;;;;;7.25;7.25;;;;;23.20;66.50;100610.97;4829473;29;45743;-68
2021/06/18 05:10:45;;;;;;;;;8.25;8.00;;;;;23.20;66.79;100600.94;4826914;29;67299;-67
2021/06/18 05:13:10;;;;;;;;;7.00;6.25;;;;;23.28;66.48;100609.28;4812358;29;45460;-67
2021/06/18 05:15:36;;;;;;;;;7.50;7.50;;;;;23.31;66.31;100605.44;4828472;29;66308;-67
2021/06/18 05:18:01;;;;;;;;;9.25;8.00;;;;;23.26;66.03;100592.22;4828921;29;45565;-68
2021/06/18 05:20:27;;;;;;;;;7.50;6.75;;;;;23.28;66.01;100609.28;4812045;29;53155;-67
2021/06/18 05:22:52;;;;;;;;;6.00;4.00;;;;;23.30;65.64;100601.88;4811630;29;70460;-67
2021/06/18 05:25:18;;;;;;;;;5.50;5.50;;;;;23.29;65.96;100611.03;4828690;29;45243;-67
2021/06/18 05:27:43;;;;;;;;;10.00;8.25;;;;;23.33;66.20;100608.03;4811230;29;53948;-67
2021/06/18 05:30:09;;;;;;;;;8.50;7.25;;;;;23.33;66.46;100610.75;4812089;29;47731;-67
2021/06/18 05:32:34;;;;;;;;;9.25;9.00;;;;;23.35;66.55;100603.31;4812300;29;45526;-67
2021/06/18 05:35:00;;;;;;;;;8.75;8.75;;;;;23.38;66.27;100616.66;4812339;29;45286;-67
2021/06/18 05:37:25;;;;;;;;;6.50;6.50;;;;;23.40;66.47;100617.38;4827798;29;56743;-67
2021/06/18 05:39:51;;;;;;;;;6.75;6.75;;;;;23.44;66.38;100608.81;4828743;29;45567;-67
2021/06/18 05:42:16;;;;;;;;;9.75;8.25;;;;;23.42;66.31;100613.53;4823639;29;68300;-67
2021/06/18 05:44:41;;;;;;;;;8.75;8.00;;;;;23.44;66.55;100611.53;4825782;29;57670;-67
2021/06/18 05:47:07;;;;;;;;;11.00;8.25;;;;;23.47;66.28;100600.38;4828859;29;45262;-67
2021/06/18 05:49:32;;;;;;;;;8.25;7.25;;;;;23.48;66.06;100615.69;4828044;29;58448;-67
2021/06/18 05:51:58;;;;;;;;;7.25;7.25;;;;;23.49;66.46;100613.84;4827696;29;68570;-67
2021/06/18 05:54:25;;;;;;;;;9.50;8.75;;;;;23.53;66.43;100606.28;4811846;29;45340;-67
2021/06/18 05:56:51;;;;;;;;;7.75;7.75;;;;;23.51;66.39;100591.94;4828499;29;45466;-67
2021/06/18 05:59:16;;;;;;;;;8.00;8.00;;;;;23.58;65.90;100593.09;4796676;29;45278;-67
2021/06/18 06:01:41;;;;;;;;;7.25;7.00;;;;;23.63;66.38;100594.41;4811714;29;54204;-66
2021/06/18 06:04:07;;;;;;;;;9.75;9.75;;;;;23.71;65.78;100601.03;4811235;29;59511;-65
2021/06/18 06:06:32;;;;;;;;;8.75;8.00;;;;;23.68;65.42;100605.75;4828239;29;55314;-65
2021/06/18 06:08:58;;;;;;;;;10.25;9.00;;;;;23.71;65.73;100618.25;4811769;29;45755;-65
2021/06/18 06:11:25;;;;;;;;;7.75;7.75;;;;;23.74;65.76;100625.25;4828349;29;45241;-64
2021/06/18 06:13:57;;;;;;;;;11.75;9.75;;;;;23.72;65.87;100633.56;4828525;29;45446;-65
2021/06/18 06:16:22;;;;;;;;;7.00;7.00;;;;;23.72;65.54;100630.00;4798699;29;45330;-65
2021/06/18 06:18:48;;;;;;;;;8.75;8.50;;;;;23.71;65.57;100631.00;4826701;29;71613;-65
2021/06/18 06:21:13;;;;;;;;;9.50;8.00;;;;;23.71;65.50;100631.00;4827576;29;66540;-65
2021/06/18 06:23:39;;;;;;;;;10.25;8.25;;;;;23.63;65.17;100610.75;4809960;29;65879;-65
2021/06/18 06:26:05;;;;;;;;;9.25;9.25;;;;;23.68;65.92;100615.78;4824427;29;53077;-65
2021/06/18 06:28:31;;;;;;;;;6.75;6.75;;;;;23.73;65.61;100618.09;4828176;29;45526;-65
2021/06/18 06:30:56;;;;;;;;;8.50;7.25;;;;;23.72;65.40;100611.78;4796689;29;46479;-65
2021/06/18 06:33:22;;;;;;;;;9.25;9.25;;;;;23.76;65.57;100617.84;4811029;29;46458;-65
2021/06/18 06:35:47;;;;;;;;;10.50;9.00;;;;;23.76;65.77;100623.28;4796528;29;47942;-65
2021/06/18 06:38:12;;;;;;;;;10.25;10.25;;;;;23.79;65.60;100628.44;4811024;29;61409;-65
2021/06/18 06:40:38;;;;;;;;;12.25;10.50;;;;;23.78;65.64;100616.69;4828119;29;45402;-65
2021/06/18 06:43:03;;;;;;;;;11.50;10.00;;;;;23.78;65.34;100619.41;4810543;29;63398;-64
2021/06/18 06:45:29;;;;;;;;;7.50;7.50;;;;;23.81;65.83;100616.41;4828543;29;45322;-64
2021/06/18 06:47:54;;;;;;;;;8.75;8.75;;;;;23.80;65.59;100608.38;4827846;29;45314;-65
2021/06/18 06:50:19;;;;;;;;;11.50;10.50;;;;;23.81;65.59;100604.66;4819772;29;66238;-64
2021/06/18 06:52:45;;;;;;;;;10.00;8.75;;;;;23.89;65.72;100617.59;4814161;29;45207;-64
2021/06/18 06:55:11;;;;;;;;;11.75;11.75;;;;;23.91;65.48;100624.66;4830851;29;57802;-65
2021/06/18 06:57:37;;;;;;;;;8.50;8.50;;;;;23.90;65.34;100614.75;4830410;29;45607;-65
2021/06/18 07:00:04;;;;;;;;;10.00;10.00;;;;;23.97;65.60;100610.47;4814659;29;45321;-64
2021/06/18 07:02:29;;;;;;;;;10.00;8.00;;;;;24.02;65.02;100630.00;4799182;29;45584;-65
2021/06/18 07:04:55;;;;;;;;;8.00;8.00;;;;;24.05;65.35;100623.38;4830307;29;55748;-63
2021/06/18 07:07:20;;;;;;;;;11.25;8.25;;;;;24.12;65.31;100623.69;4830961;29;45586;-65
2021/06/18 07:09:46;;;;;;;;;8.25;8.25;;;;;24.15;65.03;100624.25;4830896;29;45331;-65
2021/06/18 07:12:11;;;;;;;;;11.00;9.25;;;;;24.10;65.19;100621.09;4827534;29;65701;-64
2021/06/18 07:14:39;;;;;;;;;8.25;7.25;;;;;24.17;65.03;100632.31;4811549;29;54131;-65
2021/06/18 07:17:04;;;;;;;;;9.00;8.25;;;;;24.17;64.82;100630.47;4828809;29;45416;-65
2021/06/18 07:19:30;;;;;;;;;7.00;7.00;;;;;24.21;64.25;100629.16;4829520;29;65101;-64
2021/06/18 07:21:55;;;;;;;;;7.75;7.00;;;;;24.26;63.96;100633.31;4829167;29;45424;-65
2021/06/18 07:24:21;;;;;;;;;8.00;8.00;;;;;24.29;63.70;100635.75;4829736;29;55192;-65
2021/06/18 07:26:46;;;;;;;;;6.25;6.25;;;;;24.29;63.93;100630.31;4829524;29;62731;-65
2021/06/18 07:29:12;;;;;;;;;9.50;8.50;;;;;24.35;63.46;100641.53;4812750;29;61707;-65
2021/06/18 07:31:37;;;;;;;;;8.00;6.25;;;;;24.34;62.97;100637.09;4828616;29;65827;-65
2021/06/18 07:34:03;;;;;;;;;4.50;4.50;;;;;24.44;62.58;100655.31;4812995;29;55418;-65
2021/06/18 07:36:29;;;;;;;;;6.00;6.00;;;;;24.42;62.15;100647.28;4815429;29;45322;-65
2021/06/18 07:38:55;;;;;;;;;6.25;6.00;;;;;24.48;63.00;100662.22;4798021;29;45480;-65
2021/06/18 07:41:20;;;;;;;;;7.25;5.75;;;;;24.47;62.22;100647.69;4812368;29;45459;-64
2021/06/18 07:43:46;;;;;;;;;8.25;7.00;;;;;24.52;62.41;100650.00;4812804;29;57352;-65
2021/06/18 07:46:11;;;;;;;;;6.25;6.00;;;;;24.54;62.32;100650.72;4826827;29;61124;-66
2021/06/18 07:48:36;;;;;;;;;7.00;7.00;;;;;24.56;62.20;100657.81;4811307;29;56616;-66
2021/06/18 07:51:02;;;;;;;;;9.00;8.00;;;;;24.52;63.12;100647.28;4828155;29;45404;-65
2021/06/18 07:53:28;;;;;;;;;7.00;7.00;;;;;24.60;62.13;100650.19;4826658;29;45532;-65
2021/06/18 07:55:53;;;;;;;;;7.50;7.00;;;;;24.56;61.64;100638.72;4827449;29;63024;-64
2021/06/18 07:58:19;;;;;;;;;9.75;9.00;;;;;24.58;62.30;100636.69;4811530;29;47116;-65
2021/06/18 08:00:45;;;;;;;;;9.50;8.25;;;;;24.66;62.29;100655.09;4827793;29;45763;-65
2021/06/18 08:03:10;;;;;;;;;5.75;5.75;;;;;24.67;61.44;100664.97;4826391;29;45731;-65
2021/06/18 08:05:35;;;;;;;;;9.50;8.50;;;;;24.70;61.34;100655.66;4822228;29;45813;-65
2021/06/18 08:08:01;;;;;;;;;8.75;8.00;;;;;24.73;61.38;100666.28;4825804;29;45680;-65
2021/06/18 08:10:26;;;;;;;;;5.00;5.00;;;;;24.67;60.61;100648.59;4827607;29;45675;-66
2021/06/18 08:12:52;;;;;;;;;6.75;5.25;;;;;24.70;61.65;100648.31;4794304;29;48401;-65
2021/06/18 08:15:17;;;;;;;;;6.75;5.00;;;;;24.71;61.61;100652.78;4825860;29;45740;-65
2021/06/18 08:17:43;;;;;;;;;7.00;7.00;;;;;24.69;61.27;100640.28;4827276;29;46928;-65
2021/06/18 08:20:09;;;;;;;;;6.00;6.00;;;;;24.75;60.78;100647.91;4826917;29;45870;-65
2021/06/18 08:22:34;;;;;;;;;7.00;6.00;;;;;24.75;61.24;100648.75;4827305;29;45540;-65
2021/06/18 08:25:02;;;;;;;;;7.00;7.00;;;;;24.72;61.13;100640.00;4807059;29;45927;-66
2021/06/18 08:27:27;;;;;;;;;8.50;6.75;;;;;24.72;60.60;100646.31;4795880;29;46199;-66
2021/06/18 08:29:53;;;;;;;;;6.25;6.25;;;;;24.74;60.71;100640.69;4810408;29;45689;-65
2021/06/18 08:32:19;;;;;;;;;7.75;5.75;;;;;24.81;61.22;100646.44;4827310;29;45845;-66
2021/06/18 08:34:44;;;;;;;;;7.75;6.25;;;;;24.78;60.77;100618.44;4826691;29;45464;-66
2021/06/18 08:37:10;;;;;;;;;8.25;7.25;;;;;24.90;61.37;100630.06;4809850;29;66987;-67
2021/06/18 08:39:35;;;;;;;;;5.25;5.25;;;;;24.94;60.61;100636.09;4825819;29;51810;-64
2021/06/18 08:42:01;;;;;;;;;7.75;7.50;;;;;24.89;60.73;100625.63;4825777;29;61335;-66
2021/06/18 08:44:26;;;;;;;;;7.25;7.00;;;;;24.99;60.13;100633.78;4826018;29;47821;-65
2021/06/18 08:46:53;;;;;;;;;5.00;5.00;;;;;25.05;60.15;100619.56;4826654;29;63833;-66
2021/06/18 08:49:19;;;;;;;;;6.25;6.25;;;;;25.08;60.18;100627.47;4827000;29;45370;-65
2021/06/18 08:51:44;;;;;;;;;6.75;6.75;;;;;25.13;60.66;100625.16;4810785;29;49973;-65
2021/06/18 08:54:10;;;;;;;;;7.75;7.00;;;;;25.14;59.73;100620.53;4827383;29;65061;-66
2021/06/18 08:56:36;;;;;;;;;9.75;8.25;;;;;25.13;59.93;100610.63;4781511;29;48311;-66
2021/06/18 08:59:01;;;;;;;;;7.00;6.00;;;;;25.27;59.82;100622.97;4809679;29;45535;-66
2021/06/18 09:01:26;;;;;;;;;7.00;6.00;;;;;25.24;59.13;100620.50;4811342;29;45897;-68
2021/06/18 09:03:54;;;;;;;;;5.00;5.00;;;;;25.35;58.98;100636.78;4810400;29;64355;-66
2021/06/18 09:06:31;;;;;;;;;5.75;5.25;;;;;25.40;58.72;100633.59;4826318;29;45959;-66
2021/06/18 09:09:34;;;;;;;;;9.75;7.75;;;;;25.45;59.32;100643.06;4826843;29;46179;-66
2021/06/18 09:12:03;;;;;;;;;10.75;8.50;;;;;25.46;58.81;100627.50;4798103;29;45374;-66
2021/06/18 09:14:35;;;;;;;;;5.25;5.25;;;;;25.52;58.88;100643.31;4810529;29;45817;-66
2021/06/18 09:17:04;;;;;;;;;6.50;6.50;;;;;25.56;58.67;100642.03;4820863;29;45485;-66
2021/06/18 09:19:29;;;;;;;;;7.00;7.00;;;;;25.52;57.45;100625.03;4827603;29;45498;-66
2021/06/18 09:22:08;;;;;;;;;7.50;6.25;;;;;25.59;57.60;100646.31;4812088;29;45512;-66
2021/06/18 09:24:35;;;;;;;;;7.00;7.00;;;;;25.61;57.49;100639.72;4806313;29;45498;-66
2021/06/18 09:27:04;;;;;;;;;5.50;4.50;;;;;25.62;57.50;100633.22;4804086;29;48320;-66
2021/06/18 09:29:30;;;;;;;;;5.75;5.75;;;;;25.58;57.61;100620.88;4827647;29;45511;-66
2021/06/18 09:32:04;;;;;;;;;6.50;6.00;;;;;25.65;57.50;100629.31;4828144;29;45528;-66
2021/06/18 09:37:34;;;;;;;;;6.25;6.25;;;;;25.70;56.67;100637.94;4813866;29;45497;-62
2021/06/18 09:40:20;;;;;;;;;4.00;4.00;;;;;25.74;57.25;100644.81;4827710;29;45394;-62
2021/06/18 09:42:56;;;;;;;;;5.25;5.25;;;;;25.79;57.16;100647.94;4822959;29;45533;-62
2021/06/18 09:45:32;;;;;;;;;4.50;4.50;;;;;25.81;56.58;100643.22;4822099;29;45417;-63
2021/06/18 09:48:22;;;;;;;;;6.00;6.00;;;;;25.85;56.27;100641.88;4796983;29;46150;-63
2021/06/18 09:50:50;;;;;;;;;6.00;6.00;;;;;25.88;56.06;100654.41;4827263;29;45578;-62
2021/06/18 09:53:22;;;;;;;;;6.50;5.25;;;;;25.92;55.74;100649.50;4827555;29;45433;-62
2021/06/18 09:56:11;;;;;;;;;5.00;5.00;;;;;25.94;55.52;100659.25;4827374;29;45377;-62
2021/06/18 09:58:40;;;;;;;;;3.50;3.50;;;;;25.95;55.92;100658.28;4827545;29;45460;-63
2021/06/18 10:01:26;;;;;;;;;3.00;2.00;;;;;26.00;55.48;100650.47;4811358;29;45433;-62
2021/06/18 10:04:05;;;;;;;;;7.50;4.50;;;;;26.04;55.56;100656.50;4810724;29;45377;-65
2021/06/18 10:06:36;;;;;;;;;3.75;3.75;;;;;26.05;55.96;100650.88;4811568;29;45460;-63
2021/06/18 10:09:02;;;;;;;;;3.50;3.25;;;;;26.04;55.02;100648.28;4796096;29;46499;-64
2021/06/18 10:11:28;;;;;;;;;4.00;4.00;;;;;26.12;55.84;100659.34;4774283;29;45557;-63
2021/06/18 10:13:54;;;;;;;;;5.25;3.25;;;;;26.15;54.89;100674.59;4826149;29;45452;-63
2021/06/18 10:16:22;;;;;;;;;3.00;2.25;;;;;26.16;54.13;100658.03;4810882;29;45590;-63
2021/06/18 10:18:48;;;;;;;;;3.50;3.00;;;;;26.15;54.15;100672.72;4826701;29;45405;-63
2021/06/18 10:21:17;;;;;;;;;1.50;1.50;;;;;26.18;54.14;100669.69;4810976;29;45380;-63
2021/06/18 10:23:42;;;;;;;;;1.00;1.00;;;;;26.20;53.80;100680.47;4810405;29;46641;-64
2021/06/18 10:26:09;;;;;;;;;5.00;3.75;;;;;26.20;53.74;100680.47;4795281;29;72195;-64
2021/06/18 10:28:35;;;;;;;;;4.00;4.00;;;;;26.24;53.50;100673.66;4783252;29;48097;-64
2021/06/18 10:31:04;;;;;;;;;1.75;1.75;;;;;26.27;53.92;100670.63;4814252;29;45496;-63
2021/06/18 10:33:30;;;;;;;;;2.00;2.00;;;;;26.30;53.18;100672.19;4813677;29;45412;-62
2021/06/18 10:36:01;;;;;;;;;2.00;2.00;;;;;26.30;52.79;100678.53;4830941;29;45257;-64
2021/06/18 10:38:43;;;;;;;;;3.00;3.00;;;;;26.32;52.65;100678.38;4798214;29;47725;-64
2021/06/18 10:41:09;;;;;;;;;3.00;2.50;;;;;26.33;53.21;100671.88;4823276;29;45364;-64
2021/06/18 10:43:39;;;;;;;;;3.00;3.00;;;;;26.38;53.36;100670.41;4830411;29;45574;-63
2021/06/18 10:46:09;;;;;;;;;1.00;1.00;;;;;26.39;52.90;100680.31;4830370;29;45553;-64
2021/06/18 10:48:49;;;;;;;;;6.50;5.00;;;;;26.43;52.69;100675.44;4830415;29;46538;-63
2021/06/18 10:51:27;;;;;;;;;4.00;3.00;;;;;26.47;53.08;100695.97;4827796;29;45788;-68
2021/06/18 10:54:02;;;;;;;;;2.25;2.25;;;;;26.46;52.57;100688.78;4825923;29;45776;-64
2021/06/18 10:56:48;;;;;;;;;2.25;2.25;;;;;26.47;52.84;100681.44;4811128;29;45712;-62
2021/06/18 10:59:29;;;;;;;;;3.25;3.25;;;;;26.44;52.48;100682.59;4826397;29;46801;-64
2021/06/18 11:01:55;;;;;;;;;6.00;4.00;;;;;26.46;52.69;100686.03;4778831;29;45436;-64
2021/06/18 11:04:41;;;;;;;;;3.75;3.75;;;;;26.51;52.66;100680.97;4809421;29;45965;-64
2021/06/18 11:07:33;;;;;;;;;4.25;4.25;;;;;26.54;52.99;100677.06;4810558;29;45439;-64
2021/06/18 11:10:09;;;;;;;;;4.00;3.00;;;;;26.58;52.76;100687.56;4809443;29;45534;-64
2021/06/18 11:12:39;;;;;;;;;5.25;4.25;;;;;26.60;51.82;100685.50;4811630;29;45501;-64
2021/06/18 11:15:08;;;;;;;;;5.25;4.25;;;;;26.61;52.26;100697.31;4810733;29;45532;-64
2021/06/18 11:18:02;;;;;;;;;5.75;4.25;;;;;26.62;52.31;100694.44;4826272;29;45536;-64
2021/06/18 11:20:34;;;;;;;;;5.75;4.25;;;;;26.64;51.98;100683.34;4811104;29;45474;-64
2021/06/18 11:23:12;;;;;;;;;3.25;2.25;;;;;26.62;51.70;100697.16;4826672;29;45978;-65
2021/06/18 11:25:38;;;;;;;;;3.00;3.00;;;;;26.62;51.09;100691.69;4827732;29;45514;-63
2021/06/18 11:30:53;;;;;;;;;4.50;4.50;;;;;26.61;51.31;100691.84;4830110;29;45357;-64
2021/06/18 11:33:47;;;;;;;;;4.25;1.25;;;;;26.67;51.09;100693.16;4814161;29;45472;-65